sensor_id;sensor_type;location;lat;lon;timestamp;pressure;altitude;pressure_sealevel;temperature;humidity
36138;BME280;67787;50.074;21.904;2023-04-21T00:00:14;99211.61;;;9.54;57.25
36138;BME280;67787;50.074;21.904;2023-04-21T00:03:02;99210.08;;;9.50;57.42
36138;BME280;67787;50.074;21.904;2023-04-21T00:05:30;99211.91;;;9.46;57.39
36138;BME280;67787;50.074;21.904;2023-04-21T00:07:59;99217.71;;;9.41;57.33
36138;BME280;67787;50.074;21.904;2023-04-21T00:10:27;99218.98;;;9.38;57.38
36138;BME280;67787;50.074;21.904;2023-04-21T00:12:55;99214.63;;;9.37;57.46
36138;BME280;67787;50.074;21.904;2023-04-21T00:15:23;99213.00;;;9.35;57.47
36138;BME280;67787;50.074;21.904;2023-04-21T00:17:51;99213.67;;;9.33;57.42
36138;BME280;67787;50.074;21.904;2023-04-21T00:20:19;99209.46;;;9.32;57.61
36138;BME280;67787;50.074;21.904;2023-04-21T00:22:47;99208.77;;;9.32;57.70
36138;BME280;67787;50.074;21.904;2023-04-21T00:25:15;99207.48;;;9.30;57.73
36138;BME280;67787;50.074;21.904;2023-04-21T00:27:42;99204.38;;;9.31;57.85
36138;BME280;67787;50.074;21.904;2023-04-21T00:30:10;99199.73;;;9.32;57.83
36138;BME280;67787;50.074;21.904;2023-04-21T00:32:38;99201.72;;;9.32;58.01
36138;BME280;67787;50.074;21.904;2023-04-21T00:35:06;99201.16;;;9.32;57.99
36138;BME280;67787;50.074;21.904;2023-04-21T00:37:35;99198.00;;;9.32;57.96
36138;BME280;67787;50.074;21.904;2023-04-21T00:40:03;99203.21;;;9.30;57.95
36138;BME280;67787;50.074;21.904;2023-04-21T00:42:32;99200.77;;;9.30;58.04
36138;BME280;67787;50.074;21.904;2023-04-21T00:45:00;99196.84;;;9.30;58.11
36138;BME280;67787;50.074;21.904;2023-04-21T00:47:27;99191.44;;;9.32;58.17
36138;BME280;67787;50.074;21.904;2023-04-21T00:49:58;99190.92;;;9.34;58.28
36138;BME280;67787;50.074;21.904;2023-04-21T00:52:27;99191.30;;;9.34;58.29
36138;BME280;67787;50.074;21.904;2023-04-21T00:54:55;99187.27;;;9.33;58.31
36138;BME280;67787;50.074;21.904;2023-04-21T00:57:23;99187.59;;;9.34;58.40
36138;BME280;67787;50.074;21.904;2023-04-21T00:59:51;99185.15;;;9.33;58.41
36138;BME280;67787;50.074;21.904;2023-04-21T01:02:20;99188.06;;;9.32;58.43
36138;BME280;67787;50.074;21.904;2023-04-21T01:04:49;99185.38;;;9.30;58.57
36138;BME280;67787;50.074;21.904;2023-04-21T01:07:17;99191.02;;;9.25;58.55
36138;BME280;67787;50.074;21.904;2023-04-21T01:09:45;99184.90;;;9.18;58.58
36138;BME280;67787;50.074;21.904;2023-04-21T01:12:13;99186.89;;;9.12;58.60
36138;BME280;67787;50.074;21.904;2023-04-21T01:14:41;99183.89;;;9.06;58.53
36138;BME280;67787;50.074;21.904;2023-04-21T01:17:08;99188.86;;;9.00;58.57
36138;BME280;67787;50.074;21.904;2023-04-21T01:19:41;99187.55;;;8.93;58.76
36138;BME280;67787;50.074;21.904;2023-04-21T01:22:11;99194.22;;;8.89;58.78
36138;BME280;67787;50.074;21.904;2023-04-21T01:24:41;99187.91;;;8.82;58.71
36138;BME280;67787;50.074;21.904;2023-04-21T01:27:11;99190.13;;;8.80;58.89
36138;BME280;67787;50.074;21.904;2023-04-21T01:29:41;99191.55;;;8.77;59.00
36138;BME280;67787;50.074;21.904;2023-04-21T01:32:18;99191.38;;;8.74;58.81
36138;BME280;67787;50.074;21.904;2023-04-21T01:34:47;99188.73;;;8.71;58.82
36138;BME280;67787;50.074;21.904;2023-04-21T01:37:19;99190.32;;;8.66;58.76
36138;BME280;67787;50.074;21.904;2023-04-21T01:39:50;99190.35;;;8.59;58.97
36138;BME280;67787;50.074;21.904;2023-04-21T01:42:23;99185.41;;;8.51;58.95
36138;BME280;67787;50.074;21.904;2023-04-21T01:44:52;99186.84;;;8.44;58.99
36138;BME280;67787;50.074;21.904;2023-04-21T01:47:22;99187.05;;;8.38;59.07
36138;BME280;67787;50.074;21.904;2023-04-21T01:49:50;99191.39;;;8.33;59.25
36138;BME280;67787;50.074;21.904;2023-04-21T01:52:19;99193.40;;;8.29;59.27
36138;BME280;67787;50.074;21.904;2023-04-21T01:54:47;99198.14;;;8.24;59.18
36138;BME280;67787;50.074;21.904;2023-04-21T01:57:16;99199.04;;;8.18;59.18
36138;BME280;67787;50.074;21.904;2023-04-21T01:59:45;99198.33;;;8.09;59.16
36138;BME280;67787;50.074;21.904;2023-04-21T02:02:12;99198.97;;;8.04;59.22
36138;BME280;67787;50.074;21.904;2023-04-21T02:04:41;99205.95;;;7.99;59.42
36138;BME280;67787;50.074;21.904;2023-04-21T02:07:09;99202.08;;;7.91;59.50
36138;BME280;67787;50.074;21.904;2023-04-21T02:09:36;99200.75;;;7.83;59.50
36138;BME280;67787;50.074;21.904;2023-04-21T02:12:04;99202.73;;;7.79;59.63
36138;BME280;67787;50.074;21.904;2023-04-21T02:14:32;99206.55;;;7.78;59.60
36138;BME280;67787;50.074;21.904;2023-04-21T02:17:00;99201.84;;;7.73;59.60
36138;BME280;67787;50.074;21.904;2023-04-21T02:19:30;99207.42;;;7.69;59.51
36138;BME280;67787;50.074;21.904;2023-04-21T02:21:58;99211.41;;;7.64;59.73
36138;BME280;67787;50.074;21.904;2023-04-21T02:24:26;99209.77;;;7.58;59.64
36138;BME280;67787;50.074;21.904;2023-04-21T02:26:53;99208.35;;;7.53;59.69
36138;BME280;67787;50.074;21.904;2023-04-21T02:29:21;99208.55;;;7.46;59.70
36138;BME280;67787;50.074;21.904;2023-04-21T02:31:49;99203.89;;;7.41;59.76
36138;BME280;67787;50.074;21.904;2023-04-21T02:34:31;99203.08;;;7.37;59.88
36138;BME280;67787;50.074;21.904;2023-04-21T02:36:59;99205.89;;;7.31;59.84
36138;BME280;67787;50.074;21.904;2023-04-21T02:39:27;99209.71;;;7.28;59.77
36138;BME280;67787;50.074;21.904;2023-04-21T02:41:56;99207.89;;;7.26;59.95
36138;BME280;67787;50.074;21.904;2023-04-21T02:44:25;99208.45;;;7.23;59.90
36138;BME280;67787;50.074;21.904;2023-04-21T02:46:52;99205.14;;;7.19;60.07
36138;BME280;67787;50.074;21.904;2023-04-21T02:49:21;99207.41;;;7.16;60.09
36138;BME280;67787;50.074;21.904;2023-04-21T02:51:48;99204.30;;;7.12;60.08
36138;BME280;67787;50.074;21.904;2023-04-21T02:54:16;99206.13;;;7.07;60.17
36138;BME280;67787;50.074;21.904;2023-04-21T02:56:44;99206.27;;;7.05;60.08
36138;BME280;67787;50.074;21.904;2023-04-21T02:59:12;99210.26;;;7.03;60.10
36138;BME280;67787;50.074;21.904;2023-04-21T03:01:43;99207.92;;;6.97;60.26
36138;BME280;67787;50.074;21.904;2023-04-21T03:04:11;99203.61;;;6.92;60.19
36138;BME280;67787;50.074;21.904;2023-04-21T03:06:40;99211.31;;;6.90;60.35
36138;BME280;67787;50.074;21.904;2023-04-21T03:09:07;99209.73;;;6.87;60.20
36138;BME280;67787;50.074;21.904;2023-04-21T03:11:35;99210.88;;;6.82;60.33
36138;BME280;67787;50.074;21.904;2023-04-21T03:14:03;99206.70;;;6.81;60.62
36138;BME280;67787;50.074;21.904;2023-04-21T03:16:31;99208.48;;;6.81;60.59
36138;BME280;67787;50.074;21.904;2023-04-21T03:19:00;99211.13;;;6.78;60.57
36138;BME280;67787;50.074;21.904;2023-04-21T03:21:28;99206.94;;;6.74;60.72
36138;BME280;67787;50.074;21.904;2023-04-21T03:23:55;99206.45;;;6.69;60.40
36138;BME280;67787;50.074;21.904;2023-04-21T03:26:23;99204.08;;;6.67;60.78
36138;BME280;67787;50.074;21.904;2023-04-21T03:28:51;99198.23;;;6.67;60.83
36138;BME280;67787;50.074;21.904;2023-04-21T03:31:20;99200.29;;;6.66;60.77
36138;BME280;67787;50.074;21.904;2023-04-21T03:33:48;99200.71;;;6.65;60.78
36138;BME280;67787;50.074;21.904;2023-04-21T03:36:16;99203.00;;;6.62;60.74
36138;BME280;67787;50.074;21.904;2023-04-21T03:38:43;99199.38;;;6.57;60.59
36138;BME280;67787;50.074;21.904;2023-04-21T03:41:11;99203.80;;;6.56;60.89
36138;BME280;67787;50.074;21.904;2023-04-21T03:43:40;99204.13;;;6.57;60.93
36138;BME280;67787;50.074;21.904;2023-04-21T03:46:16;99203.62;;;6.56;60.99
36138;BME280;67787;50.074;21.904;2023-04-21T03:48:45;99203.54;;;6.58;61.05
36138;BME280;67787;50.074;21.904;2023-04-21T03:51:13;99207.48;;;6.60;60.96
36138;BME280;67787;50.074;21.904;2023-04-21T03:53:42;99208.29;;;6.61;60.83
36138;BME280;67787;50.074;21.904;2023-04-21T03:56:10;99202.55;;;6.63;60.92
36138;BME280;67787;50.074;21.904;2023-04-21T03:58:38;99205.16;;;6.67;61.13
36138;BME280;67787;50.074;21.904;2023-04-21T04:01:06;99203.25;;;6.70;61.10
36138;BME280;67787;50.074;21.904;2023-04-21T04:03:34;99203.77;;;6.73;61.24
36138;BME280;67787;50.074;21.904;2023-04-21T04:06:02;99209.03;;;6.77;61.14
36138;BME280;67787;50.074;21.904;2023-04-21T04:08:30;99208.94;;;6.79;61.21
36138;BME280;67787;50.074;21.904;2023-04-21T04:10:58;99208.10;;;6.81;61.20
36138;BME280;67787;50.074;21.904;2023-04-21T04:13:26;99209.11;;;6.85;61.42
36138;BME280;67787;50.074;21.904;2023-04-21T04:15:56;99208.86;;;6.90;61.12
36138;BME280;67787;50.074;21.904;2023-04-21T04:18:25;99213.27;;;6.96;61.56
36138;BME280;67787;50.074;21.904;2023-04-21T04:20:53;99216.83;;;7.02;61.33
36138;BME280;67787;50.074;21.904;2023-04-21T04:23:21;99219.34;;;7.08;61.38
36138;BME280;67787;50.074;21.904;2023-04-21T04:25:49;99223.20;;;7.14;61.50
36138;BME280;67787;50.074;21.904;2023-04-21T04:28:18;99222.42;;;7.19;61.63
36138;BME280;67787;50.074;21.904;2023-04-21T04:30:46;99229.39;;;7.24;61.64
36138;BME280;67787;50.074;21.904;2023-04-21T04:33:14;99232.20;;;7.27;61.69
36138;BME280;67787;50.074;21.904;2023-04-21T04:35:42;99232.37;;;7.30;61.73
36138;BME280;67787;50.074;21.904;2023-04-21T04:38:10;99238.59;;;7.36;61.93
36138;BME280;67787;50.074;21.904;2023-04-21T04:40:39;99242.51;;;7.41;61.70
36138;BME280;67787;50.074;21.904;2023-04-21T04:43:07;99240.48;;;7.46;61.85
36138;BME280;67787;50.074;21.904;2023-04-21T04:45:37;99236.08;;;7.52;61.79
36138;BME280;67787;50.074;21.904;2023-04-21T04:48:06;99240.85;;;7.58;61.96
36138;BME280;67787;50.074;21.904;2023-04-21T04:50:33;99240.25;;;7.63;61.94
36138;BME280;67787;50.074;21.904;2023-04-21T04:53:02;99246.82;;;7.68;61.99
36138;BME280;67787;50.074;21.904;2023-04-21T04:55:29;99244.33;;;7.75;62.07
36138;BME280;67787;50.074;21.904;2023-04-21T04:57:57;99243.15;;;7.83;62.10
36138;BME280;67787;50.074;21.904;2023-04-21T05:00:25;99244.36;;;7.92;62.01
36138;BME280;67787;50.074;21.904;2023-04-21T05:02:54;99240.54;;;8.03;62.13
36138;BME280;67787;50.074;21.904;2023-04-21T05:05:22;99239.31;;;8.15;62.16
36138;BME280;67787;50.074;21.904;2023-04-21T05:07:51;99235.80;;;8.27;62.17
36138;BME280;67787;50.074;21.904;2023-04-21T05:10:19;99231.52;;;8.33;62.04
36138;BME280;67787;50.074;21.904;2023-04-21T05:12:47;99230.16;;;8.38;62.18
36138;BME280;67787;50.074;21.904;2023-04-21T05:15:16;99229.70;;;8.43;62.28
36138;BME280;67787;50.074;21.904;2023-04-21T05:17:45;99230.11;;;8.48;62.15
36138;BME280;67787;50.074;21.904;2023-04-21T05:20:13;99238.56;;;8.52;62.17
36138;BME280;67787;50.074;21.904;2023-04-21T05:22:41;99241.31;;;8.56;62.32
36138;BME280;67787;50.074;21.904;2023-04-21T05:25:10;99236.10;;;8.60;62.22
36138;BME280;67787;50.074;21.904;2023-04-21T05:27:38;99229.41;;;8.65;62.34
36138;BME280;67787;50.074;21.904;2023-04-21T05:30:08;99230.98;;;8.71;62.30
36138;BME280;67787;50.074;21.904;2023-04-21T05:32:36;99230.77;;;8.81;62.20
36138;BME280;67787;50.074;21.904;2023-04-21T05:35:04;99227.64;;;8.91;62.34
36138;BME280;67787;50.074;21.904;2023-04-21T05:37:32;99230.73;;;9.04;62.28
36138;BME280;67787;50.074;21.904;2023-04-21T05:40:00;99231.43;;;9.21;62.40
36138;BME280;67787;50.074;21.904;2023-04-21T05:42:28;99231.38;;;9.35;62.32
36138;BME280;67787;50.074;21.904;2023-04-21T05:44:56;99233.61;;;9.45;62.20
36138;BME280;67787;50.074;21.904;2023-04-21T05:47:25;99232.55;;;9.50;62.12
36138;BME280;67787;50.074;21.904;2023-04-21T05:49:53;99232.00;;;9.58;62.27
36138;BME280;67787;50.074;21.904;2023-04-21T05:52:20;99231.86;;;9.69;62.22
36138;BME280;67787;50.074;21.904;2023-04-21T05:54:48;99230.90;;;9.78;62.16
36138;BME280;67787;50.074;21.904;2023-04-21T05:57:16;99226.98;;;9.87;62.26
36138;BME280;67787;50.074;21.904;2023-04-21T05:59:44;99229.01;;;9.93;62.13
36138;BME280;67787;50.074;21.904;2023-04-21T06:02:13;99225.47;;;10.01;62.20
36138;BME280;67787;50.074;21.904;2023-04-21T06:04:41;99224.42;;;10.09;62.13
36138;BME280;67787;50.074;21.904;2023-04-21T06:07:10;99224.07;;;10.19;62.14
36138;BME280;67787;50.074;21.904;2023-04-21T06:09:40;99223.21;;;10.26;62.16
36138;BME280;67787;50.074;21.904;2023-04-21T06:12:07;99222.31;;;10.32;62.09
36138;BME280;67787;50.074;21.904;2023-04-21T06:14:35;99221.59;;;10.40;62.22
36138;BME280;67787;50.074;21.904;2023-04-21T06:17:04;99222.88;;;10.50;62.07
36138;BME280;67787;50.074;21.904;2023-04-21T06:19:36;99223.16;;;10.53;62.00
36138;BME280;67787;50.074;21.904;2023-04-21T06:22:04;99222.21;;;10.54;61.89
36138;BME280;67787;50.074;21.904;2023-04-21T06:24:32;99220.71;;;10.53;61.90
36138;BME280;67787;50.074;21.904;2023-04-21T06:27:00;99219.63;;;10.53;61.97
36138;BME280;67787;50.074;21.904;2023-04-21T06:29:28;99218.60;;;10.55;61.80
36138;BME280;67787;50.074;21.904;2023-04-21T06:31:56;99218.75;;;10.58;61.84
36138;BME280;67787;50.074;21.904;2023-04-21T06:34:24;99219.30;;;10.63;61.87
36138;BME280;67787;50.074;21.904;2023-04-21T06:36:52;99217.59;;;10.65;61.67
36138;BME280;67787;50.074;21.904;2023-04-21T06:39:20;99213.02;;;10.64;61.60
36138;BME280;67787;50.074;21.904;2023-04-21T06:41:47;99213.27;;;10.66;61.67
36138;BME280;67787;50.074;21.904;2023-04-21T06:44:15;99210.30;;;10.68;61.75
36138;BME280;67787;50.074;21.904;2023-04-21T06:46:44;99211.68;;;10.70;61.72
36138;BME280;67787;50.074;21.904;2023-04-21T06:49:12;99212.02;;;10.73;61.56
36138;BME280;67787;50.074;21.904;2023-04-21T06:51:40;99213.31;;;10.75;61.53
36138;BME280;67787;50.074;21.904;2023-04-21T06:54:07;99213.36;;;10.77;61.55
36138;BME280;67787;50.074;21.904;2023-04-21T06:56:35;99211.96;;;10.79;61.51
36138;BME280;67787;50.074;21.904;2023-04-21T06:59:03;99209.26;;;10.82;61.49
36138;BME280;67787;50.074;21.904;2023-04-21T07:01:31;99212.09;;;10.85;61.46
36138;BME280;67787;50.074;21.904;2023-04-21T07:03:59;99210.45;;;10.88;61.37
36138;BME280;67787;50.074;21.904;2023-04-21T07:06:28;99210.32;;;10.92;61.42
36138;BME280;67787;50.074;21.904;2023-04-21T07:08:55;99207.63;;;10.98;61.47
36138;BME280;67787;50.074;21.904;2023-04-21T07:11:23;99212.94;;;11.03;61.53
36138;BME280;67787;50.074;21.904;2023-04-21T07:13:51;99211.86;;;11.08;61.36
36138;BME280;67787;50.074;21.904;2023-04-21T07:16:19;99210.14;;;11.12;61.24
36138;BME280;67787;50.074;21.904;2023-04-21T07:18:47;99210.20;;;11.17;61.36
36138;BME280;67787;50.074;21.904;2023-04-21T07:21:15;99214.48;;;11.21;61.48
36138;BME280;67787;50.074;21.904;2023-04-21T07:23:43;99211.02;;;11.24;61.17
36138;BME280;67787;50.074;21.904;2023-04-21T07:26:10;99213.67;;;11.30;61.46
36138;BME280;67787;50.074;21.904;2023-04-21T07:28:38;99211.06;;;11.37;61.28
36138;BME280;67787;50.074;21.904;2023-04-21T07:31:10;99210.41;;;11.41;61.22
36138;BME280;67787;50.074;21.904;2023-04-21T07:33:38;99216.20;;;11.46;61.21
36138;BME280;67787;50.074;21.904;2023-04-21T07:36:06;99211.54;;;11.56;61.10
36138;BME280;67787;50.074;21.904;2023-04-21T07:38:33;99210.56;;;11.65;60.94
36138;BME280;67787;50.074;21.904;2023-04-21T07:41:01;99210.56;;;11.72;60.81
36138;BME280;67787;50.074;21.904;2023-04-21T07:43:29;99210.15;;;11.77;60.85
36138;BME280;67787;50.074;21.904;2023-04-21T07:45:58;99205.31;;;11.83;60.97
36138;BME280;67787;50.074;21.904;2023-04-21T07:48:26;99211.46;;;11.88;60.70
36138;BME280;67787;50.074;21.904;2023-04-21T07:50:54;99200.94;;;11.94;60.53
36138;BME280;67787;50.074;21.904;2023-04-21T07:53:22;99205.23;;;12.01;60.49
36138;BME280;67787;50.074;21.904;2023-04-21T07:55:50;99203.58;;;12.06;60.61
36138;BME280;67787;50.074;21.904;2023-04-21T07:58:17;99203.76;;;12.13;60.28
36138;BME280;67787;50.074;21.904;2023-04-21T08:00:46;99195.27;;;12.20;60.39
36138;BME280;67787;50.074;21.904;2023-04-21T08:03:14;99193.88;;;12.24;60.37
36138;BME280;67787;50.074;21.904;2023-04-21T08:05:42;99195.81;;;12.31;60.36
36138;BME280;67787;50.074;21.904;2023-04-21T08:08:10;99195.45;;;12.40;60.16
36138;BME280;67787;50.074;21.904;2023-04-21T08:10:38;99192.23;;;12.49;60.05
36138;BME280;67787;50.074;21.904;2023-04-21T08:13:06;99192.80;;;12.54;59.99
36138;BME280;67787;50.074;21.904;2023-04-21T08:15:35;99192.45;;;12.58;59.97
36138;BME280;67787;50.074;21.904;2023-04-21T08:18:03;99185.99;;;12.63;59.85
36138;BME280;67787;50.074;21.904;2023-04-21T08:20:31;99183.19;;;12.70;59.40
36138;BME280;67787;50.074;21.904;2023-04-21T08:22:59;99185.28;;;12.72;59.92
36138;BME280;67787;50.074;21.904;2023-04-21T08:25:27;99183.21;;;12.76;59.58
36138;BME280;67787;50.074;21.904;2023-04-21T08:27:55;99183.97;;;12.85;59.42
36138;BME280;67787;50.074;21.904;2023-04-21T08:30:26;99189.82;;;12.94;59.43
36138;BME280;67787;50.074;21.904;2023-04-21T08:32:53;99183.79;;;13.00;59.41
36138;BME280;67787;50.074;21.904;2023-04-21T08:35:22;99191.00;;;13.06;59.11
36138;BME280;67787;50.074;21.904;2023-04-21T08:37:50;99184.39;;;13.10;59.38
36138;BME280;67787;50.074;21.904;2023-04-21T08:40:20;99187.98;;;13.10;59.06
36138;BME280;67787;50.074;21.904;2023-04-21T08:42:47;99184.80;;;13.14;59.05
36138;BME280;67787;50.074;21.904;2023-04-21T08:45:16;99180.59;;;13.22;59.03
36138;BME280;67787;50.074;21.904;2023-04-21T08:47:45;99183.81;;;13.29;58.84
36138;BME280;67787;50.074;21.904;2023-04-21T08:50:14;99180.27;;;13.33;59.03
36138;BME280;67787;50.074;21.904;2023-04-21T08:52:41;99175.43;;;13.37;58.73
36138;BME280;67787;50.074;21.904;2023-04-21T08:55:10;99172.08;;;13.44;58.93
36138;BME280;67787;50.074;21.904;2023-04-21T08:57:38;99171.45;;;13.49;58.71
36138;BME280;67787;50.074;21.904;2023-04-21T09:00:07;99171.23;;;13.56;58.57
36138;BME280;67787;50.074;21.904;2023-04-21T09:02:52;99170.27;;;13.70;58.68
36138;BME280;67787;50.074;21.904;2023-04-21T09:05:29;99171.48;;;13.86;57.98
36138;BME280;67787;50.074;21.904;2023-04-21T09:08:11;99163.27;;;13.90;58.27
36138;BME280;67787;50.074;21.904;2023-04-21T09:10:43;99162.33;;;13.91;58.30
36138;BME280;67787;50.074;21.904;2023-04-21T09:13:12;99164.34;;;13.90;57.81
36138;BME280;67787;50.074;21.904;2023-04-21T09:15:41;99166.23;;;13.91;57.53
36138;BME280;67787;50.074;21.904;2023-04-21T09:18:14;99152.39;;;13.98;57.59
36138;BME280;67787;50.074;21.904;2023-04-21T09:20:44;99153.75;;;14.10;57.20
36138;BME280;67787;50.074;21.904;2023-04-21T09:23:12;99152.49;;;14.22;56.94
36138;BME280;67787;50.074;21.904;2023-04-21T09:25:43;99154.41;;;14.31;56.48
36138;BME280;67787;50.074;21.904;2023-04-21T09:28:13;99152.94;;;14.40;56.29
36138;BME280;67787;50.074;21.904;2023-04-21T09:30:41;99149.19;;;14.48;56.08
36138;BME280;67787;50.074;21.904;2023-04-21T09:33:16;99148.08;;;14.53;56.04
36138;BME280;67787;50.074;21.904;2023-04-21T09:35:59;99148.95;;;14.53;56.17
36138;BME280;67787;50.074;21.904;2023-04-21T09:38:29;99145.79;;;14.50;56.01
36138;BME280;67787;50.074;21.904;2023-04-21T09:40:57;99147.66;;;14.52;55.58
36138;BME280;67787;50.074;21.904;2023-04-21T09:43:26;99144.84;;;14.55;55.02
36138;BME280;67787;50.074;21.904;2023-04-21T09:45:54;99141.15;;;14.61;55.34
36138;BME280;67787;50.074;21.904;2023-04-21T09:48:23;99147.93;;;14.58;54.24
36138;BME280;67787;50.074;21.904;2023-04-21T09:50:56;99140.60;;;14.56;54.98
36138;BME280;67787;50.074;21.904;2023-04-21T09:53:28;99144.61;;;14.60;54.08
36138;BME280;67787;50.074;21.904;2023-04-21T09:55:57;99129.91;;;14.69;54.29
36138;BME280;67787;50.074;21.904;2023-04-21T09:58:27;99140.38;;;14.84;53.85
36138;BME280;67787;50.074;21.904;2023-04-21T10:01:00;99140.29;;;14.95;53.15
36138;BME280;67787;50.074;21.904;2023-04-21T10:03:31;99143.06;;;14.92;52.88
36138;BME280;67787;50.074;21.904;2023-04-21T10:06:00;99134.42;;;14.85;52.95
36138;BME280;67787;50.074;21.904;2023-04-21T10:08:28;99128.39;;;14.78;53.42
36138;BME280;67787;50.074;21.904;2023-04-21T10:10:57;99132.06;;;14.75;53.53
36138;BME280;67787;50.074;21.904;2023-04-21T10:13:26;99126.84;;;14.82;52.92
36138;BME280;67787;50.074;21.904;2023-04-21T10:16:02;99127.41;;;14.99;52.87
36138;BME280;67787;50.074;21.904;2023-04-21T10:18:41;99114.45;;;15.14;52.90
36138;BME280;67787;50.074;21.904;2023-04-21T10:21:11;99105.95;;;15.17;53.08
36138;BME280;67787;50.074;21.904;2023-04-21T10:23:44;99109.04;;;15.13;52.31
36138;BME280;67787;50.074;21.904;2023-04-21T10:26:16;99111.65;;;15.08;52.54
36138;BME280;67787;50.074;21.904;2023-04-21T10:28:59;99112.11;;;15.03;51.97
36138;BME280;67787;50.074;21.904;2023-04-21T10:31:32;99109.23;;;14.97;52.35
36138;BME280;67787;50.074;21.904;2023-04-21T10:44:43;99091.33;;;15.13;51.23
36138;BME280;67787;50.074;21.904;2023-04-21T10:47:11;99086.95;;;15.12;50.96
36138;BME280;67787;50.074;21.904;2023-04-21T10:49:41;99086.95;;;15.12;51.12
36138;BME280;67787;50.074;21.904;2023-04-21T10:52:08;99082.92;;;15.13;50.46
36138;BME280;67787;50.074;21.904;2023-04-21T10:55:03;99079.13;;;15.18;49.21
36138;BME280;67787;50.074;21.904;2023-04-21T10:57:32;99079.63;;;15.24;50.07
36138;BME280;67787;50.074;21.904;2023-04-21T11:00:01;99071.63;;;15.26;50.29
36138;BME280;67787;50.074;21.904;2023-04-21T11:02:33;99074.34;;;15.31;48.85
36138;BME280;67787;50.074;21.904;2023-04-21T11:05:07;99080.20;;;15.31;49.29
36138;BME280;67787;50.074;21.904;2023-04-21T11:07:35;99071.85;;;15.27;49.54
36138;BME280;67787;50.074;21.904;2023-04-21T11:10:07;99072.55;;;15.27;49.45
36138;BME280;67787;50.074;21.904;2023-04-21T11:12:38;99071.48;;;15.29;49.72
36138;BME280;67787;50.074;21.904;2023-04-21T11:15:11;99076.38;;;15.30;49.22
36138;BME280;67787;50.074;21.904;2023-04-21T11:17:44;99074.59;;;15.32;49.10
36138;BME280;67787;50.074;21.904;2023-04-21T11:20:13;99070.51;;;15.36;48.96
36138;BME280;67787;50.074;21.904;2023-04-21T11:22:42;99082.02;;;15.37;47.87
36138;BME280;67787;50.074;21.904;2023-04-21T11:25:17;99078.54;;;15.38;48.10
36138;BME280;67787;50.074;21.904;2023-04-21T11:27:55;99075.15;;;15.40;48.48
36138;BME280;67787;50.074;21.904;2023-04-21T11:30:30;99075.50;;;15.42;48.52
36138;BME280;67787;50.074;21.904;2023-04-21T11:33:02;99064.76;;;15.42;48.59
36138;BME280;67787;50.074;21.904;2023-04-21T11:35:31;99073.66;;;15.37;47.65
36138;BME280;67787;50.074;21.904;2023-04-21T11:38:03;99066.08;;;15.36;47.68
36138;BME280;67787;50.074;21.904;2023-04-21T11:40:52;99066.52;;;15.41;47.01
36138;BME280;67787;50.074;21.904;2023-04-21T11:43:48;99070.35;;;15.47;46.86
36138;BME280;67787;50.074;21.904;2023-04-21T11:46:22;99060.98;;;15.46;46.86
36138;BME280;67787;50.074;21.904;2023-04-21T11:49:17;99062.05;;;15.46;46.69
36138;BME280;67787;50.074;21.904;2023-04-21T11:51:45;99063.63;;;15.50;47.30
36138;BME280;67787;50.074;21.904;2023-04-21T11:54:13;99059.23;;;15.57;47.09
36138;BME280;67787;50.074;21.904;2023-04-21T11:56:45;99048.29;;;15.64;47.07
36138;BME280;67787;50.074;21.904;2023-04-21T11:59:21;99041.98;;;15.64;47.23
36138;BME280;67787;50.074;21.904;2023-04-21T12:01:53;99040.98;;;15.61;47.27
36138;BME280;67787;50.074;21.904;2023-04-21T12:04:23;99039.11;;;15.62;47.16
36138;BME280;67787;50.074;21.904;2023-04-21T12:06:59;99038.77;;;15.64;47.31
36138;BME280;67787;50.074;21.904;2023-04-21T12:09:28;99037.17;;;15.64;47.29
36138;BME280;67787;50.074;21.904;2023-04-21T12:11:57;99038.68;;;15.69;46.62
36138;BME280;67787;50.074;21.904;2023-04-21T12:14:25;99041.85;;;15.66;46.48
36138;BME280;67787;50.074;21.904;2023-04-21T12:16:55;99034.77;;;15.59;46.62
36138;BME280;67787;50.074;21.904;2023-04-21T12:19:24;99037.19;;;15.54;46.31
36138;BME280;67787;50.074;21.904;2023-04-21T12:22:09;99034.76;;;15.59;46.23
36138;BME280;67787;50.074;21.904;2023-04-21T12:24:39;99031.63;;;15.64;46.10
36138;BME280;67787;50.074;21.904;2023-04-21T12:27:08;99030.28;;;15.71;45.53
36138;BME280;67787;50.074;21.904;2023-04-21T12:29:36;99026.05;;;15.77;45.57
36138;BME280;67787;50.074;21.904;2023-04-21T12:32:05;99015.61;;;15.78;45.80
36138;BME280;67787;50.074;21.904;2023-04-21T12:34:34;99010.42;;;15.74;45.61
36138;BME280;67787;50.074;21.904;2023-04-21T12:37:03;99011.09;;;15.71;46.02
36138;BME280;67787;50.074;21.904;2023-04-21T12:39:32;99012.65;;;15.68;45.50
36138;BME280;67787;50.074;21.904;2023-04-21T12:42:00;99011.65;;;15.71;45.77
36138;BME280;67787;50.074;21.904;2023-04-21T12:44:28;99008.55;;;15.75;45.64
36138;BME280;67787;50.074;21.904;2023-04-21T12:46:57;99008.35;;;15.81;45.78
36138;BME280;67787;50.074;21.904;2023-04-21T12:49:25;99004.73;;;15.86;45.72
36138;BME280;67787;50.074;21.904;2023-04-21T12:51:54;99007.08;;;15.90;45.33
36138;BME280;67787;50.074;21.904;2023-04-21T12:54:22;99001.11;;;15.90;45.42
36138;BME280;67787;50.074;21.904;2023-04-21T12:56:50;99001.27;;;15.98;45.15
36138;BME280;67787;50.074;21.904;2023-04-21T12:59:18;98999.13;;;16.02;45.05
36138;BME280;67787;50.074;21.904;2023-04-21T13:01:45;98991.95;;;16.02;44.98
36138;BME280;67787;50.074;21.904;2023-04-21T13:04:13;98994.20;;;16.02;44.89
36138;BME280;67787;50.074;21.904;2023-04-21T13:06:42;98989.95;;;16.10;45.43
36138;BME280;67787;50.074;21.904;2023-04-21T13:09:10;98999.56;;;16.14;44.84
36138;BME280;67787;50.074;21.904;2023-04-21T13:11:38;98992.33;;;16.20;44.88
36138;BME280;67787;50.074;21.904;2023-04-21T13:14:06;98990.02;;;16.24;44.91
36138;BME280;67787;50.074;21.904;2023-04-21T13:16:34;98987.92;;;16.25;44.65